createdAt,value
2022-10-17T00:00:29.068Z,74.44
2022-10-17T00:01:29.095Z,69.77
2022-10-17T00:02:29.039Z,73.15
2022-10-17T00:03:29.004Z,73.48
2022-10-17T00:04:29.033Z,73.96
2022-10-17T00:05:28.952Z,73.64
2022-10-17T00:06:28.952Z,73.80
2022-10-17T00:07:29.317Z,73.96
2022-10-17T00:08:28.876Z,73.80
2022-10-17T00:09:28.859Z,72.51
2022-10-17T00:10:28.837Z,70.90
2022-10-17T00:11:28.842Z,74.12
2022-10-17T00:12:28.785Z,71.87
2022-10-17T00:13:28.819Z,73.32
2022-10-17T00:14:28.747Z,72.83
2022-10-17T00:15:28.723Z,71.22
2022-10-17T00:16:28.749Z,73.15
2022-10-17T00:17:28.964Z,74.60
2022-10-17T00:18:28.659Z,71.70
2022-10-17T00:19:28.638Z,72.19
2022-10-17T00:20:28.619Z,74.44
2022-10-17T00:21:28.624Z,74.44
2022-10-17T00:22:28.617Z,72.99
2022-10-17T00:23:28.549Z,72.67
2022-10-17T00:24:28.528Z,69.61
2022-10-17T00:25:28.511Z,72.03
2022-10-17T00:26:28.510Z,75.09
2022-10-17T00:27:28.897Z,72.03
2022-10-17T00:28:28.491Z,72.35
2022-10-17T00:29:28.421Z,72.67
2022-10-17T00:30:28.395Z,71.06
2022-10-17T00:31:28.397Z,74.12
2022-10-17T00:32:28.775Z,72.51
2022-10-17T00:33:28.329Z,73.80
2022-10-17T00:34:28.313Z,73.80
2022-10-17T00:35:28.296Z,73.15
2022-10-17T00:36:28.293Z,73.15
2022-10-17T00:37:28.244Z,72.51
2022-10-17T00:38:28.223Z,73.48
2022-10-17T00:39:28.200Z,74.28
2022-10-17T00:40:28.178Z,73.96
2022-10-17T00:41:28.183Z,73.48
2022-10-17T00:42:28.404Z,72.19
2022-10-17T00:43:28.109Z,75.09
2022-10-17T00:44:28.094Z,74.12
2022-10-17T00:45:28.067Z,72.03
2022-10-17T00:46:28.081Z,72.99
2022-10-17T00:47:28.023Z,73.64
2022-10-17T00:48:28.001Z,72.99
2022-10-17T00:49:27.978Z,74.77
2022-10-17T00:50:27.966Z,74.93
2022-10-17T00:51:27.959Z,73.15
2022-10-17T00:52:28.065Z,74.12
2022-10-17T00:53:27.890Z,70.58
2022-10-17T00:54:27.864Z,74.44
2022-10-17T00:55:27.845Z,73.96
2022-10-17T00:56:27.847Z,74.12
2022-10-17T00:57:27.797Z,71.70
2022-10-17T00:58:27.778Z,73.80
2022-10-17T00:59:27.755Z,72.67
2022-10-17T01:00:27.736Z,72.83
2022-10-17T01:01:27.775Z,77.50
2022-10-17T01:02:28.028Z,73.96
2022-10-17T01:03:27.668Z,73.48
2022-10-17T01:04:27.649Z,75.89
2022-10-17T01:05:27.619Z,73.48
2022-10-17T01:06:27.627Z,79.44
2022-10-17T01:07:27.577Z,76.38
2022-10-17T01:08:27.555Z,74.28
2022-10-17T01:09:27.534Z,74.12
2022-10-17T01:10:27.512Z,73.80
2022-10-17T01:11:27.517Z,73.15
2022-10-17T01:12:27.676Z,79.92
2022-10-17T01:13:27.445Z,73.80
2022-10-17T01:14:27.418Z,75.41
2022-10-17T01:15:27.396Z,73.32
2022-10-17T01:16:27.405Z,70.74
2022-10-17T01:17:27.354Z,74.60
2022-10-17T01:18:27.332Z,75.57
2022-10-17T01:19:27.319Z,73.96
2022-10-17T01:20:27.288Z,73.64
2022-10-17T01:21:27.289Z,74.28
2022-10-17T01:22:27.545Z,74.77
2022-10-17T01:23:27.218Z,73.80
2022-10-17T01:24:27.202Z,76.54
2022-10-17T01:25:27.179Z,73.48
2022-10-17T01:26:27.183Z,73.48
2022-10-17T01:27:27.130Z,73.80
2022-10-17T01:28:27.220Z,74.60
2022-10-17T01:29:27.091Z,70.90
2022-10-17T01:30:27.064Z,73.96
2022-10-17T01:31:27.068Z,72.83
2022-10-17T01:32:27.268Z,75.41
2022-10-17T01:33:26.998Z,75.25
2022-10-17T01:34:26.970Z,74.28
2022-10-17T01:35:27.954Z,73.64
2022-10-17T01:36:26.956Z,75.09
2022-10-17T01:37:26.908Z,72.51
2022-10-17T01:38:26.885Z,74.77
2022-10-17T01:39:29.359Z,72.99
2022-10-17T01:40:26.842Z,75.41
2022-10-17T01:41:26.845Z,71.38
2022-10-17T01:42:27.118Z,73.32
2022-10-17T01:43:26.771Z,76.86
2022-10-17T01:44:26.749Z,71.22
2022-10-17T01:45:26.730Z,75.73
2022-10-17T01:46:26.736Z,70.42
2022-10-17T01:47:26.945Z,73.48
2022-10-17T01:48:26.661Z,73.64
2022-10-17T01:49:26.641Z,75.57
2022-10-17T01:50:26.618Z,76.38
2022-10-17T01:51:26.626Z,74.93
2022-10-17T01:52:26.584Z,71.06
2022-10-17T01:53:26.558Z,73.32
2022-10-17T01:54:26.525Z,74.28
2022-10-17T01:55:26.505Z,74.44
2022-10-17T01:56:26.508Z,74.77
2022-10-17T01:57:26.877Z,72.83
2022-10-17T01:58:26.438Z,72.35
2022-10-17T01:59:26.417Z,75.25
2022-10-17T02:00:26.390Z,74.60
2022-10-17T02:01:26.438Z,73.48
2022-10-17T02:02:26.339Z,73.15
2022-10-17T02:03:26.328Z,74.60
2022-10-17T02:04:26.308Z,75.89
2022-10-17T02:05:26.283Z,76.54
2022-10-17T02:06:26.292Z,76.05
2022-10-17T02:07:26.732Z,75.25
2022-10-17T02:08:26.216Z,74.60
2022-10-17T02:09:26.194Z,74.44
2022-10-17T02:10:26.176Z,75.89
2022-10-17T02:11:26.175Z,73.96
2022-10-17T02:12:26.127Z,74.77
2022-10-17T02:13:26.107Z,74.12
2022-10-17T02:14:26.087Z,72.99
2022-10-17T02:15:26.062Z,73.15
2022-10-17T02:16:26.062Z,75.57
2022-10-17T02:17:26.211Z,75.09
2022-10-17T02:18:25.997Z,75.09
2022-10-17T02:19:25.974Z,74.28
2022-10-17T02:20:25.952Z,75.57
2022-10-17T02:21:25.957Z,76.70
2022-10-17T02:22:25.902Z,72.51
2022-10-17T02:23:25.889Z,73.32
2022-10-17T02:24:25.861Z,74.93
2022-10-17T02:25:25.840Z,75.25
2022-10-17T02:26:25.845Z,76.22
2022-10-17T02:27:26.120Z,74.44
2022-10-17T02:28:25.799Z,75.57
2022-10-17T02:29:25.753Z,75.09
2022-10-17T02:30:25.729Z,77.18
2022-10-17T02:31:25.729Z,74.77
2022-10-17T02:32:25.696Z,74.28
2022-10-17T02:33:25.668Z,73.48
2022-10-17T02:34:25.640Z,74.60
2022-10-17T02:35:25.622Z,75.73
2022-10-17T02:36:25.619Z,76.54
2022-10-17T02:37:25.816Z,75.41
2022-10-17T02:38:25.545Z,72.67
2022-10-17T02:39:25.524Z,73.48
2022-10-17T02:40:25.518Z,76.54
2022-10-17T02:41:25.521Z,74.93
2022-10-17T02:42:25.455Z,76.05
2022-10-17T02:43:25.428Z,73.96
2022-10-17T02:44:25.406Z,77.34
2022-10-17T02:45:25.387Z,75.25
2022-10-17T02:46:25.392Z,74.28
2022-10-17T02:47:25.345Z,74.60
2022-10-17T02:48:25.321Z,75.73
2022-10-17T02:49:25.299Z,75.73
2022-10-17T02:50:25.288Z,77.99
2022-10-17T02:51:25.281Z,75.25
2022-10-17T02:52:25.229Z,76.38
2022-10-17T02:53:25.210Z,74.77
2022-10-17T02:54:25.182Z,76.54
2022-10-17T02:55:25.166Z,74.93
2022-10-17T02:56:25.171Z,75.57
2022-10-17T02:57:25.121Z,75.57
2022-10-17T02:58:25.093Z,74.44
2022-10-17T02:59:25.120Z,75.25
2022-10-17T03:00:25.051Z,75.09
2022-10-17T03:01:25.098Z,74.44
2022-10-17T03:02:25.012Z,76.22
2022-10-17T03:03:24.978Z,75.41
2022-10-17T03:04:24.964Z,75.89
2022-10-17T03:05:24.943Z,76.86
2022-10-17T03:06:24.943Z,76.22
2022-10-17T03:07:24.897Z,73.96
2022-10-17T03:08:24.910Z,75.57
2022-10-17T03:09:24.850Z,76.54
2022-10-17T03:10:24.828Z,75.89
2022-10-17T03:11:24.842Z,76.05
2022-10-17T03:12:24.785Z,77.67
2022-10-17T03:13:24.767Z,75.25
2022-10-17T03:14:24.741Z,76.05
2022-10-17T03:15:24.717Z,75.57
2022-10-17T03:16:24.724Z,76.22
2022-10-17T03:17:24.676Z,74.93
2022-10-17T03:18:24.652Z,75.73
2022-10-17T03:19:24.634Z,76.70
2022-10-17T03:20:24.617Z,76.86
2022-10-17T03:21:24.618Z,76.54
2022-10-17T03:22:24.567Z,73.96
2022-10-17T03:23:24.568Z,76.05
2022-10-17T03:24:24.524Z,75.41
2022-10-17T03:25:24.502Z,75.09
2022-10-17T03:26:24.506Z,75.73
2022-10-17T03:27:24.454Z,76.54
2022-10-17T03:28:24.469Z,74.77
2022-10-17T03:29:24.415Z,77.02
2022-10-17T03:30:24.393Z,77.18
2022-10-17T03:31:24.392Z,77.02
2022-10-17T03:32:24.343Z,74.93
2022-10-17T03:33:24.321Z,75.57
2022-10-17T03:34:24.302Z,77.34
2022-10-17T03:35:24.284Z,77.34
2022-10-17T03:36:24.284Z,76.54
2022-10-17T03:37:24.231Z,75.41
2022-10-17T03:38:25.211Z,76.54
2022-10-17T03:39:24.189Z,77.02
2022-10-17T03:40:24.162Z,74.93
2022-10-17T03:41:24.171Z,76.70
2022-10-17T03:42:24.124Z,75.89
2022-10-17T03:43:24.098Z,74.93
2022-10-17T03:44:24.079Z,76.22
2022-10-17T03:45:24.057Z,76.86
2022-10-17T03:46:24.064Z,74.77
2022-10-17T03:47:24.013Z,77.99
2022-10-17T03:48:23.989Z,76.05
2022-10-17T03:49:23.968Z,76.38
2022-10-17T03:50:23.944Z,76.22
2022-10-17T03:51:23.951Z,79.12
2022-10-17T03:52:23.901Z,76.70
2022-10-17T03:53:23.878Z,77.34
2022-10-17T03:54:23.860Z,76.05
2022-10-17T03:55:23.833Z,76.86
2022-10-17T03:56:23.840Z,76.54
2022-10-17T03:57:23.787Z,76.54
2022-10-17T03:58:23.765Z,77.18
2022-10-17T03:59:23.741Z,77.50
2022-10-17T04:00:23.720Z,75.57
2022-10-17T04:01:23.810Z,75.25
2022-10-17T04:02:23.675Z,74.93
2022-10-17T04:03:23.649Z,75.41
2022-10-17T04:04:23.625Z,76.70
2022-10-17T04:05:23.602Z,77.50
2022-10-17T04:06:23.610Z,74.28
2022-10-17T04:07:23.608Z,75.89
2022-10-17T04:08:23.533Z,77.02
2022-10-17T04:09:23.514Z,75.41
2022-10-17T04:10:23.488Z,76.05
2022-10-17T04:11:23.495Z,74.60
2022-10-17T04:12:23.443Z,76.54
2022-10-17T04:13:23.420Z,76.38
2022-10-17T04:14:23.399Z,77.02
2022-10-17T04:15:23.452Z,77.99
2022-10-17T04:16:24.383Z,75.25
2022-10-17T04:17:23.337Z,77.02
2022-10-17T04:18:23.313Z,77.18
2022-10-17T04:19:23.312Z,76.05
2022-10-17T04:20:23.264Z,75.73
2022-10-17T04:21:23.276Z,76.05
2022-10-17T04:22:23.219Z,75.73
2022-10-17T04:23:23.199Z,75.09
2022-10-17T04:24:23.181Z,75.73
2022-10-17T04:25:23.155Z,76.54
2022-10-17T04:26:23.136Z,75.57
2022-10-17T04:27:23.138Z,76.54
2022-10-17T04:28:23.188Z,76.70
2022-10-17T04:29:23.065Z,76.54
2022-10-17T04:30:23.043Z,76.70
2022-10-17T04:31:23.021Z,75.73
2022-10-17T04:32:23.028Z,76.05
2022-10-17T04:33:22.975Z,76.05
2022-10-17T04:34:22.952Z,76.38
2022-10-17T04:35:22.928Z,76.86
2022-10-17T04:36:22.913Z,74.28
2022-10-17T04:37:22.908Z,75.89
2022-10-17T04:38:27.647Z,77.34
2022-10-17T04:39:24.837Z,75.57
2022-10-17T04:40:22.821Z,77.99
2022-10-17T04:41:22.791Z,76.05
2022-10-17T04:42:22.801Z,77.02
2022-10-17T04:43:22.746Z,76.54
2022-10-17T04:44:22.727Z,77.34
2022-10-17T04:45:22.700Z,76.05
2022-10-17T04:46:22.681Z,77.02
2022-10-17T04:47:22.682Z,75.25
2022-10-17T04:48:22.631Z,76.54
2022-10-17T04:49:22.608Z,76.22
2022-10-17T04:50:22.585Z,78.31
2022-10-17T04:51:24.603Z,76.70
2022-10-17T04:52:22.566Z,76.86
2022-10-17T04:53:22.523Z,75.57
2022-10-17T04:54:22.502Z,76.05
2022-10-17T04:55:22.475Z,76.05
2022-10-17T04:56:22.451Z,77.02
2022-10-17T04:57:22.454Z,75.41
2022-10-17T04:58:22.410Z,76.05
2022-10-17T04:59:22.382Z,76.70
2022-10-17T05:00:22.355Z,77.18
2022-10-17T05:01:22.372Z,77.99
2022-10-17T05:02:22.338Z,77.02
2022-10-17T05:03:22.290Z,76.22
2022-10-17T05:04:24.727Z,75.57
2022-10-17T05:05:23.242Z,77.02
2022-10-17T05:06:22.229Z,76.86
2022-10-17T05:07:22.225Z,76.38
2022-10-17T05:08:22.174Z,76.70
2022-10-17T05:09:22.156Z,75.41
2022-10-17T05:10:22.128Z,77.02
2022-10-17T05:11:22.107Z,77.50
2022-10-17T05:12:22.112Z,75.25
2022-10-17T05:13:22.060Z,76.54
2022-10-17T05:14:22.040Z,76.54
2022-10-17T05:15:22.019Z,78.15
2022-10-17T05:16:21.996Z,75.57
2022-10-17T05:17:21.999Z,77.02
2022-10-17T05:18:21.947Z,76.70
2022-10-17T05:19:21.928Z,76.70
2022-10-17T05:20:21.906Z,75.73
2022-10-17T05:21:21.944Z,75.73
2022-10-17T05:22:21.891Z,77.02
2022-10-17T05:23:21.834Z,77.02
2022-10-17T05:24:21.818Z,77.34
2022-10-17T05:25:21.797Z,76.05
2022-10-17T05:26:21.775Z,77.18
2022-10-17T05:27:21.777Z,76.54
2022-10-17T05:28:21.771Z,76.54
2022-10-17T05:29:21.705Z,80.08
2022-10-17T05:30:21.685Z,75.41
2022-10-17T05:31:21.657Z,76.05
2022-10-17T05:32:21.674Z,77.34
2022-10-17T05:33:21.612Z,75.57
2022-10-17T05:34:21.592Z,77.34
2022-10-17T05:35:21.571Z,76.22
2022-10-17T05:36:21.554Z,76.70
2022-10-17T05:37:21.553Z,77.18
2022-10-17T05:38:21.507Z,77.50
2022-10-17T05:39:21.487Z,77.67
2022-10-17T05:40:21.462Z,75.57
2022-10-17T05:41:21.438Z,77.02
2022-10-17T05:42:21.497Z,76.05
2022-10-17T05:43:21.391Z,76.54
2022-10-17T05:44:21.367Z,76.86
2022-10-17T05:45:21.345Z,75.73
2022-10-17T05:46:21.322Z,77.83
2022-10-17T05:47:21.324Z,77.83
2022-10-17T05:48:21.274Z,77.50
2022-10-17T05:49:33.003Z,74.77
2022-10-17T05:50:23.232Z,74.12
2022-10-17T05:51:21.208Z,76.54
2022-10-17T05:52:21.213Z,75.09
2022-10-17T05:53:21.166Z,76.86
2022-10-17T05:54:21.135Z,76.70
2022-10-17T05:55:21.113Z,77.02
2022-10-17T05:56:21.093Z,77.18
2022-10-17T05:57:21.096Z,76.22
2022-10-17T05:58:22.052Z,79.44
2022-10-17T05:59:23.068Z,77.02
2022-10-17T06:00:21.004Z,77.50
2022-10-17T06:01:20.993Z,76.54
2022-10-17T06:02:21.009Z,76.54
2022-10-17T06:03:20.926Z,77.50
2022-10-17T06:04:21.939Z,77.02
2022-10-17T06:05:20.899Z,76.86
2022-10-17T06:06:20.868Z,78.47
2022-10-17T06:07:20.839Z,75.89
2022-10-17T06:08:20.818Z,76.54
2022-10-17T06:09:20.819Z,76.54
2022-10-17T06:10:20.771Z,77.50
2022-10-17T06:11:20.753Z,77.34
2022-10-17T06:12:20.755Z,76.38
2022-10-17T06:13:20.702Z,75.73
2022-10-17T06:14:20.681Z,77.50
2022-10-17T06:15:20.658Z,76.54
2022-10-17T06:16:20.635Z,76.70
2022-10-17T06:17:20.640Z,76.22
2022-10-17T06:18:20.596Z,75.41
2022-10-17T06:19:20.573Z,77.02
2022-10-17T06:20:20.547Z,75.25
2022-10-17T06:21:20.526Z,76.38
2022-10-17T06:22:20.527Z,75.41
2022-10-17T06:23:20.478Z,76.38
2022-10-17T06:24:20.474Z,77.83
2022-10-17T06:25:20.474Z,76.38
2022-10-17T06:26:20.417Z,75.41
2022-10-17T06:27:21.385Z,75.25
2022-10-17T06:28:20.364Z,75.73
2022-10-17T06:29:20.343Z,78.31
2022-10-17T06:30:20.349Z,76.86
2022-10-17T06:31:20.297Z,76.38
2022-10-17T06:32:20.276Z,77.34
2022-10-17T06:33:20.255Z,77.18
2022-10-17T06:34:20.231Z,80.41
2022-10-17T06:35:20.243Z,76.05
2022-10-17T06:36:20.187Z,75.89
2022-10-17T06:37:20.196Z,78.47
2022-10-17T06:38:20.142Z,75.89
2022-10-17T06:39:20.122Z,77.50
2022-10-17T06:40:20.104Z,75.89
2022-10-17T06:41:20.083Z,77.50
2022-10-17T06:42:20.089Z,76.86
2022-10-17T06:43:20.694Z,75.57
2022-10-17T06:44:20.005Z,75.25
2022-10-17T06:45:20.992Z,75.57
2022-10-17T06:46:19.969Z,75.25
2022-10-17T06:47:20.253Z,77.67
2022-10-17T06:48:19.928Z,75.25
2022-10-17T06:49:19.911Z,76.70
2022-10-17T06:50:19.892Z,76.05
2022-10-17T06:51:19.874Z,76.86
2022-10-17T06:52:19.882Z,76.22
2022-10-17T06:53:19.834Z,75.41
2022-10-17T06:54:19.817Z,76.54
2022-10-17T06:55:22.766Z,74.60
2022-10-17T06:56:19.777Z,77.50
2022-10-17T06:57:19.788Z,74.44
2022-10-17T06:58:19.738Z,76.22
2022-10-17T06:59:19.719Z,75.57
2022-10-17T07:00:19.701Z,75.09
2022-10-17T07:01:19.680Z,76.54
2022-10-17T07:02:19.683Z,75.41
2022-10-17T07:03:19.643Z,75.57
2022-10-17T07:04:19.648Z,74.93
2022-10-17T07:05:19.599Z,76.22
2022-10-17T07:06:19.589Z,76.22
2022-10-17T07:07:19.597Z,75.41
2022-10-17T07:08:19.544Z,74.60
2022-10-17T07:09:19.525Z,75.73
2022-10-17T07:10:19.510Z,74.60
2022-10-17T07:11:19.504Z,74.12
2022-10-17T07:12:19.505Z,75.09
2022-10-17T07:13:19.449Z,74.60
2022-10-17T07:14:19.437Z,74.44
2022-10-17T07:15:19.413Z,74.60
2022-10-17T07:16:19.400Z,74.44
2022-10-17T07:17:19.406Z,74.60
2022-10-17T07:18:19.363Z,76.05
2022-10-17T07:19:19.336Z,75.41
2022-10-17T07:20:19.323Z,76.38
2022-10-17T07:21:19.309Z,75.73
2022-10-17T07:22:19.284Z,75.41
2022-10-17T07:23:19.308Z,76.54
2022-10-17T07:24:19.261Z,74.60
2022-10-17T07:25:19.225Z,74.60
2022-10-17T07:26:19.219Z,74.44
2022-10-17T07:27:19.192Z,73.48
2022-10-17T07:28:19.209Z,77.34
2022-10-17T07:29:19.152Z,78.96
2022-10-17T07:30:19.136Z,73.80
2022-10-17T07:31:19.120Z,74.12
2022-10-17T07:32:19.093Z,75.73
2022-10-17T07:33:19.110Z,74.28
2022-10-17T07:34:19.053Z,75.09
2022-10-17T07:35:19.039Z,76.38
2022-10-17T07:36:19.048Z,76.22
2022-10-17T07:37:18.996Z,75.73
2022-10-17T07:38:19.007Z,76.86
2022-10-17T07:39:18.952Z,75.57
2022-10-17T07:40:19.946Z,74.93
2022-10-17T07:41:20.950Z,75.41
2022-10-17T07:42:18.906Z,75.57
2022-10-17T07:43:18.917Z,75.73
2022-10-17T07:44:18.876Z,74.60
2022-10-17T07:45:18.854Z,75.09
2022-10-17T07:46:18.835Z,76.70
2022-10-17T07:47:18.819Z,76.38
2022-10-17T07:48:18.837Z,74.93
2022-10-17T07:49:18.779Z,75.25
2022-10-17T07:50:18.764Z,75.57
2022-10-17T07:51:18.743Z,74.12
2022-10-17T07:52:18.723Z,75.41
2022-10-17T07:53:18.729Z,73.64
2022-10-17T07:54:18.685Z,75.57
2022-10-17T07:55:18.667Z,76.05
2022-10-17T07:56:18.648Z,75.41
2022-10-17T07:57:18.631Z,76.05
2022-10-17T07:58:18.637Z,75.73
2022-10-17T07:59:18.602Z,75.25
2022-10-17T08:00:18.573Z,75.25
2022-10-17T08:01:18.551Z,75.57
2022-10-17T08:02:18.533Z,74.93
2022-10-17T08:03:18.542Z,76.38
2022-10-17T08:04:18.498Z,73.64
2022-10-17T08:05:18.507Z,73.96
2022-10-17T08:06:18.455Z,75.41
2022-10-17T08:07:22.126Z,73.48
2022-10-17T08:08:20.445Z,76.38
2022-10-17T08:09:18.402Z,77.99
2022-10-17T08:10:18.383Z,74.93
2022-10-17T08:11:18.351Z,75.09
2022-10-17T08:12:19.343Z,77.18
2022-10-17T08:13:18.346Z,74.93
2022-10-17T08:14:18.302Z,73.80
2022-10-17T08:15:18.290Z,75.09
2022-10-17T08:16:18.260Z,76.22
2022-10-17T08:17:18.244Z,76.38
2022-10-17T08:18:18.255Z,76.38
2022-10-17T08:19:18.205Z,74.28
2022-10-17T08:20:18.182Z,75.57
2022-10-17T08:21:18.196Z,75.89
2022-10-17T08:22:18.148Z,74.44
2022-10-17T08:23:18.158Z,76.22
2022-10-17T08:24:18.114Z,74.77
2022-10-17T08:25:18.095Z,75.73
2022-10-17T08:26:18.073Z,73.48
2022-10-17T08:27:18.053Z,75.73
2022-10-17T08:28:18.061Z,74.12
2022-10-17T08:29:18.032Z,76.05
2022-10-17T08:30:17.997Z,73.64
2022-10-17T08:31:17.977Z,74.12
2022-10-17T08:32:17.960Z,75.73
2022-10-17T08:33:17.965Z,75.41
2022-10-17T08:34:17.919Z,76.22
2022-10-17T08:35:17.898Z,75.09
2022-10-17T08:36:17.889Z,74.60
2022-10-17T08:37:17.864Z,75.73
2022-10-17T08:38:20.911Z,75.57
2022-10-17T08:39:18.817Z,73.32
2022-10-17T08:40:17.802Z,75.09
2022-10-17T08:41:17.783Z,74.60
2022-10-17T08:42:17.762Z,76.70
2022-10-17T08:43:17.774Z,73.64
2022-10-17T08:44:17.723Z,73.48
2022-10-17T08:45:17.699Z,76.05
2022-10-17T08:46:17.695Z,75.09
2022-10-17T08:47:17.706Z,75.09
2022-10-17T08:48:17.668Z,72.67
2022-10-17T08:49:17.623Z,76.54
2022-10-17T08:50:17.612Z,75.41
2022-10-17T08:51:17.593Z,74.93
2022-10-17T08:52:17.572Z,77.34
2022-10-17T08:53:17.579Z,73.32
2022-10-17T08:54:17.542Z,73.96
2022-10-17T08:55:17.513Z,74.12
2022-10-17T08:56:19.898Z,72.99
2022-10-17T08:57:19.476Z,74.28
2022-10-17T08:58:17.486Z,75.09
2022-10-17T08:59:17.440Z,73.32
2022-10-17T09:00:17.413Z,73.15
2022-10-17T09:01:17.401Z,73.80
2022-10-17T09:02:17.387Z,73.64
2022-10-17T09:03:17.465Z,74.60
2022-10-17T09:04:17.441Z,72.35
2022-10-17T09:05:18.055Z,76.54
2022-10-17T09:06:17.304Z,73.96
2022-10-17T09:07:17.287Z,74.12
2022-10-17T09:08:17.289Z,74.93
2022-10-17T09:09:17.248Z,74.28
2022-10-17T09:10:17.230Z,76.05
2022-10-17T09:11:17.210Z,73.64
2022-10-17T09:12:17.197Z,73.64
2022-10-17T09:13:17.199Z,73.48
2022-10-17T09:14:17.158Z,74.60
2022-10-17T09:15:17.140Z,76.38
2022-10-17T09:16:17.117Z,72.67
2022-10-17T09:17:17.099Z,75.09
2022-10-17T09:18:19.819Z,73.64
2022-10-17T09:19:17.061Z,72.67
2022-10-17T09:20:17.045Z,72.51
2022-10-17T09:21:17.029Z,73.15
2022-10-17T09:22:17.008Z,73.80
2022-10-17T09:23:17.018Z,74.28
2022-10-17T09:24:16.976Z,73.80
2022-10-17T09:25:16.956Z,73.32
2022-10-17T09:26:16.933Z,73.32
2022-10-17T09:27:16.914Z,74.28
2022-10-17T09:28:16.921Z,72.67
2022-10-17T09:29:16.885Z,71.38
2022-10-17T09:30:27.009Z,73.64
2022-10-17T09:31:18.843Z,73.15
2022-10-17T09:32:16.823Z,71.38
2022-10-17T09:33:35.149Z,74.28
2022-10-17T09:34:18.787Z,74.44
2022-10-17T09:35:16.772Z,74.12
2022-10-17T09:36:16.749Z,72.67
2022-10-17T09:37:16.731Z,73.32
2022-10-17T09:38:16.738Z,72.19
2022-10-17T09:39:16.696Z,72.35
2022-10-17T09:40:16.679Z,73.64
2022-10-17T09:41:43.053Z,71.70
2022-10-17T09:42:18.642Z,72.35
2022-10-17T09:43:16.650Z,72.83
2022-10-17T09:44:16.598Z,72.83
2022-10-17T09:45:16.584Z,70.90
2022-10-17T09:46:16.558Z,73.64
2022-10-17T09:47:16.546Z,73.80
2022-10-17T09:48:16.556Z,74.12
2022-10-17T09:49:17.417Z,73.48
2022-10-17T09:50:16.496Z,72.35
2022-10-17T09:51:25.640Z,72.19
2022-10-17T09:52:18.460Z,71.38
2022-10-17T09:53:16.465Z,72.51
2022-10-17T09:54:16.410Z,73.15
2022-10-17T09:55:17.392Z,73.32
2022-10-17T09:56:17.386Z,72.51
2022-10-17T09:57:16.371Z,73.48
2022-10-17T09:58:16.369Z,72.99
2022-10-17T09:59:16.330Z,72.99
2022-10-17T10:00:16.313Z,72.83
2022-10-17T10:01:20.988Z,70.42
2022-10-17T10:02:18.280Z,72.99
2022-10-17T10:03:16.282Z,72.51
2022-10-17T10:04:17.237Z,74.28
2022-10-17T10:05:16.217Z,73.32
2022-10-17T10:06:16.201Z,72.03
2022-10-17T10:07:16.183Z,71.70
2022-10-17T10:08:16.194Z,71.54
2022-10-17T10:09:16.186Z,71.54
2022-10-17T10:10:16.124Z,72.99
2022-10-17T10:11:16.126Z,72.35
2022-10-17T10:12:16.090Z,72.35
2022-10-17T10:13:16.106Z,71.54
2022-10-17T10:14:16.058Z,69.77
2022-10-17T10:15:16.041Z,71.70
2022-10-17T10:16:16.023Z,71.70
2022-10-17T10:17:16.000Z,70.42
2022-10-17T10:18:16.014Z,73.15
2022-10-17T10:19:15.967Z,71.70
2022-10-17T10:20:15.949Z,72.67
2022-10-17T10:21:15.929Z,72.67
2022-10-17T10:22:15.911Z,72.99
2022-10-17T10:23:15.922Z,72.83
2022-10-17T10:24:15.869Z,71.38
2022-10-17T10:25:15.854Z,71.06
2022-10-17T10:26:20.162Z,72.03
2022-10-17T10:27:17.824Z,71.54
2022-10-17T10:28:15.830Z,71.22
2022-10-17T10:29:15.782Z,72.19
2022-10-17T10:30:15.766Z,70.42
2022-10-17T10:31:15.747Z,73.48
2022-10-17T10:32:15.724Z,70.74
2022-10-17T10:33:15.737Z,72.19
2022-10-17T10:34:15.689Z,74.12
2022-10-17T10:35:15.669Z,71.54
2022-10-17T10:36:15.655Z,72.51
2022-10-17T10:37:16.986Z,72.35
2022-10-17T10:38:15.644Z,75.09
2022-10-17T10:39:15.595Z,71.54
2022-10-17T10:40:15.576Z,72.99
2022-10-17T10:41:15.560Z,72.19
2022-10-17T10:42:15.535Z,71.22
2022-10-17T10:43:15.546Z,71.22
2022-10-17T10:44:15.504Z,72.35
2022-10-17T10:45:29.438Z,71.87
2022-10-17T10:46:17.460Z,72.35
2022-10-17T10:47:15.450Z,73.32
2022-10-17T10:48:15.452Z,70.42
2022-10-17T10:49:15.406Z,69.93
2022-10-17T10:50:15.393Z,67.84
2022-10-17T10:51:15.385Z,70.74
2022-10-17T10:52:15.425Z,72.67
2022-10-17T10:53:15.366Z,73.32
2022-10-17T10:54:15.315Z,72.51
2022-10-17T10:55:15.307Z,72.19
2022-10-17T10:56:15.283Z,72.03
2022-10-17T10:57:15.260Z,74.12
2022-10-17T10:58:15.270Z,73.64
2022-10-17T10:59:15.223Z,72.35
2022-10-17T11:00:15.208Z,72.35
2022-10-17T11:01:15.256Z,72.99
2022-10-17T11:02:15.167Z,73.32
2022-10-17T11:03:15.172Z,72.35
2022-10-17T11:04:15.133Z,72.19
2022-10-17T11:05:15.109Z,72.99
2022-10-17T11:06:15.088Z,72.83
2022-10-17T11:07:15.070Z,71.22
2022-10-17T11:08:15.074Z,72.03
2022-10-17T11:09:15.031Z,73.80
2022-10-17T11:10:15.015Z,73.80
2022-10-17T11:11:14.993Z,72.03
2022-10-17T11:12:14.973Z,72.51
2022-10-17T11:13:14.991Z,71.70
2022-10-17T11:14:14.940Z,71.70
2022-10-17T11:15:14.921Z,71.87
2022-10-17T11:16:14.896Z,73.15
2022-10-17T11:17:14.888Z,73.15
2022-10-17T11:18:14.887Z,71.22
2022-10-17T11:19:14.847Z,74.60
2022-10-17T11:20:14.827Z,72.83
2022-10-17T11:21:14.807Z,71.87
2022-10-17T11:22:14.792Z,73.15
2022-10-17T11:23:14.803Z,73.32
2022-10-17T11:24:14.747Z,72.35
2022-10-17T11:25:14.730Z,71.87
2022-10-17T11:26:14.717Z,71.54
2022-10-17T11:27:14.694Z,72.67
2022-10-17T11:28:14.706Z,72.99
2022-10-17T11:29:14.654Z,72.35
2022-10-17T11:30:14.638Z,73.48
2022-10-17T11:31:14.616Z,72.99
2022-10-17T11:32:14.600Z,70.74
2022-10-17T11:33:14.607Z,71.06
2022-10-17T11:34:14.563Z,72.99
2022-10-17T11:35:14.547Z,72.83
2022-10-17T11:36:14.523Z,71.87
2022-10-17T11:37:14.508Z,74.28
2022-10-17T11:38:14.517Z,72.19
2022-10-17T11:39:14.470Z,72.19
2022-10-17T11:40:14.455Z,73.96
2022-10-17T11:41:14.427Z,73.64
2022-10-17T11:42:14.409Z,71.70
2022-10-17T11:43:14.417Z,73.15
2022-10-17T11:44:14.373Z,72.35
2022-10-17T11:45:14.362Z,72.03
2022-10-17T11:46:14.344Z,72.51
2022-10-17T11:47:14.318Z,72.51
2022-10-17T11:48:14.327Z,72.35
2022-10-17T11:49:19.903Z,73.15
2022-10-17T11:52:26.977Z,72.19
2022-10-17T11:53:16.232Z,71.70
2022-10-17T11:54:15.092Z,72.67
2022-10-17T11:55:14.174Z,72.83
2022-10-17T11:56:14.164Z,74.93
2022-10-17T11:57:14.922Z,72.51
2022-10-17T11:58:15.196Z,72.19
2022-10-17T11:59:14.096Z,72.19
2022-10-17T12:00:14.080Z,72.19
2022-10-17T12:01:14.062Z,71.87
2022-10-17T12:02:14.044Z,73.64
2022-10-17T12:03:14.057Z,72.19
2022-10-17T12:04:14.072Z,73.64
2022-10-17T12:05:13.983Z,73.64
2022-10-17T12:06:13.955Z,72.67
2022-10-17T12:07:14.947Z,72.51
2022-10-17T12:08:13.952Z,72.83
2022-10-17T12:09:13.907Z,72.35
2022-10-17T12:10:13.887Z,72.03
2022-10-17T12:11:13.871Z,74.28
2022-10-17T12:12:13.948Z,73.15
2022-10-17T12:13:13.856Z,74.60
2022-10-17T12:14:13.816Z,74.28
2022-10-17T12:15:13.798Z,71.70
2022-10-17T12:16:17.442Z,75.09
2022-10-17T12:17:14.971Z,76.05
2022-10-17T12:18:13.762Z,72.83
2022-10-17T12:19:13.718Z,74.28
2022-10-17T12:20:13.715Z,71.38
2022-10-17T12:21:13.678Z,73.48
2022-10-17T12:22:13.657Z,73.64
2022-10-17T12:23:13.671Z,74.12
2022-10-17T12:24:18.764Z,73.32
2022-10-17T12:25:15.602Z,72.83
2022-10-17T12:26:13.583Z,73.96
2022-10-17T12:27:13.568Z,72.19
2022-10-17T12:28:13.573Z,73.32
2022-10-17T12:29:13.530Z,74.77
2022-10-17T12:30:13.513Z,72.51
2022-10-17T12:31:13.493Z,73.15
2022-10-17T12:32:13.470Z,78.47
2022-10-17T12:33:13.482Z,75.25
2022-10-17T12:34:13.438Z,79.44
2022-10-17T12:35:13.416Z,80.89
2022-10-17T12:36:13.398Z,80.73
2022-10-17T12:37:13.383Z,79.60
2022-10-17T12:38:13.384Z,71.06
2022-10-17T12:39:13.340Z,72.19
2022-10-17T12:40:13.320Z,82.50
2022-10-17T12:41:13.298Z,88.78
2022-10-17T12:42:13.428Z,90.56
2022-10-17T12:43:13.298Z,81.69
2022-10-17T12:44:13.253Z,76.54
2022-10-17T12:45:13.224Z,75.41
2022-10-17T12:46:13.203Z,77.67
2022-10-17T12:47:13.182Z,74.77
2022-10-17T12:48:13.191Z,77.50
2022-10-17T12:49:13.147Z,75.41
2022-10-17T12:50:13.128Z,75.09
2022-10-17T12:52:15.093Z,74.28
2022-10-17T12:53:16.911Z,79.44
2022-10-17T12:54:15.063Z,72.19
2022-10-17T12:55:13.951Z,80.73